Time;durP1;ratioP1;P1;durP2;ratioP2;P2;SDS_P1;SDS_P2;PMS_P1;PMS_P2;Temp;Humidity;BMP_temperature;BMP_pressure;BME280_temperature;BME280_humidity;BME280_pressure;Samples;Min_cycle;Max_cycle;Signal;HPM_P1;HPM_P2
2021/10/08 00:01:28;;;;;;;8.70;5.20;;;9.00;55.90;;;;;;5036439;28;20079;-38
2021/10/08 00:03:55;;;;;;;9.73;5.22;;;9.00;55.90;;;;;;5036797;28;20065;-35
2021/10/08 00:06:21;;;;;;;7.93;5.15;;;9.00;56.00;;;;;;5036257;28;20018;-38
2021/10/08 00:08:47;;;;;;;8.20;4.80;;;9.00;56.00;;;;;;5036847;28;20104;-38
2021/10/08 00:11:13;;;;;;;8.75;5.25;;;8.90;56.10;;;;;;5036243;28;20108;-39
2021/10/08 00:13:38;;;;;;;12.88;4.80;;;8.90;56.20;;;;;;5036712;28;20029;-38
2021/10/08 00:16:05;;;;;;;7.15;5.22;;;8.90;56.30;;;;;;5035894;28;20317;-35
2021/10/08 00:18:36;;;;;;;11.80;5.50;;;8.90;56.30;;;;;;5036724;28;20034;-40
2021/10/08 00:21:02;;;;;;;13.38;5.50;;;8.90;56.50;;;;;;5035742;28;20026;-35
2021/10/08 00:23:28;;;;;;;7.18;4.60;;;8.90;56.60;;;;;;5035990;28;20455;-38
2021/10/08 00:25:54;;;;;;;9.25;4.63;;;8.80;56.50;;;;;;5035885;28;20025;-35
2021/10/08 00:28:20;;;;;;;8.13;5.28;;;8.80;56.50;;;;;;5036244;28;20038;-40
2021/10/08 00:30:46;;;;;;;9.57;5.50;;;8.80;56.50;;;;;;5036160;28;20325;-38
2021/10/08 00:33:12;;;;;;;10.32;5.15;;;8.80;56.50;;;;;;5036121;28;20060;-38
2021/10/08 00:35:37;;;;;;;12.15;5.10;;;8.80;56.60;;;;;;5035853;28;20079;-39
2021/10/08 00:38:05;;;;;;;8.85;4.93;;;8.80;56.60;;;;;;5035918;28;20480;-35
2021/10/08 00:40:41;;;;;;;10.10;4.93;;;8.80;56.60;;;;;;5034540;28;20029;-35
2021/10/08 00:43:08;;;;;;;9.02;5.40;;;8.80;56.70;;;;;;5035887;28;20041;-37
2021/10/08 00:45:34;;;;;;;8.35;4.97;;;8.70;56.60;;;;;;5035945;28;20029;-40
2021/10/08 00:48:06;;;;;;;7.80;4.95;;;8.70;56.50;;;;;;5035753;28;20056;-36
2021/10/08 00:50:38;;;;;;;9.13;5.20;;;8.70;56.50;;;;;;5035911;28;20029;-35
2021/10/08 00:53:07;;;;;;;10.15;5.15;;;8.70;56.50;;;;;;5035821;28;20108;-36
2021/10/08 00:55:35;;;;;;;14.93;5.22;;;8.70;56.50;;;;;;5034407;28;20372;-35
2021/10/08 00:58:01;;;;;;;9.80;5.07;;;8.70;56.30;;;;;;5035388;28;20045;-35
2021/10/08 01:00:27;;;;;;;12.73;5.70;;;8.60;56.20;;;;;;5035485;28;20033;-38
2021/10/08 01:02:53;;;;;;;11.13;5.22;;;8.60;56.20;;;;;;5035598;28;20033;-35
2021/10/08 01:05:19;;;;;;;7.40;4.60;;;8.60;56.20;;;;;;5035623;28;20298;-36
2021/10/08 01:07:45;;;;;;;8.27;4.57;;;8.60;56.20;;;;;;5035567;28;20042;-38
2021/10/08 01:10:10;;;;;;;14.85;5.20;;;8.60;56.20;;;;;;5035608;28;20072;-35
2021/10/08 01:12:39;;;;;;;11.40;5.07;;;8.60;56.30;;;;;;5035584;28;20410;-35
2021/10/08 01:15:05;;;;;;;7.93;5.55;;;8.60;56.50;;;;;;5035605;28;20080;-35
2021/10/08 01:17:31;;;;;;;9.82;5.55;;;8.60;56.50;;;;;;5035079;28;20433;-38
2021/10/08 01:20:08;;;;;;;8.93;4.88;;;8.60;56.50;;;;;;5035125;28;20083;-35
2021/10/08 01:22:34;;;;;;;8.82;5.22;;;8.50;56.50;;;;;;5035432;28;20033;-35
2021/10/08 01:25:00;;;;;;;9.90;5.00;;;8.50;57.00;;;;;;5035394;28;20036;-38
2021/10/08 01:27:25;;;;;;;11.98;4.82;;;8.50;56.40;;;;;;5035266;28;20410;-38
2021/10/08 01:29:54;;;;;;;10.43;5.03;;;8.50;56.40;;;;;;5035227;28;20025;-36
2021/10/08 01:32:20;;;;;;;10.75;5.13;;;8.50;56.30;;;;;;5035295;28;20033;-38
2021/10/08 01:34:46;;;;;;;14.05;5.68;;;8.50;56.40;;;;;;5038725;28;20065;-38
2021/10/08 01:37:16;;;;;;;9.38;5.47;;;8.50;56.40;;;;;;5039265;28;20302;-35
2021/10/08 01:39:43;;;;;;;11.05;5.32;;;8.40;56.40;;;;;;5038938;28;20096;-38
2021/10/08 01:42:09;;;;;;;9.50;5.50;;;8.40;56.50;;;;;;5038955;28;20037;-35
2021/10/08 01:44:35;;;;;;;9.43;4.85;;;8.40;56.50;;;;;;5038947;28;20044;-35
2021/10/08 01:47:01;;;;;;;13.60;5.70;;;8.40;56.50;;;;;;5038846;28;20025;-38
2021/10/08 01:49:26;;;;;;;10.43;4.97;;;8.40;56.50;;;;;;5039147;28;20029;-38
2021/10/08 01:51:52;;;;;;;8.38;5.68;;;8.40;56.50;;;;;;5038702;28;20432;-35
2021/10/08 01:54:17;;;;;;;10.95;5.80;;;8.40;56.50;;;;;;5038696;28;20030;-35
2021/10/08 01:56:46;;;;;;;9.68;5.22;;;8.40;56.50;;;;;;5038523;28;20332;-39
2021/10/08 01:59:13;;;;;;;9.48;5.45;;;8.40;56.50;;;;;;5038872;28;20306;-35
2021/10/08 02:01:38;;;;;;;9.07;5.68;;;8.40;56.50;;;;;;5038460;28;20032;-36
2021/10/08 02:04:04;;;;;;;12.68;5.88;;;8.40;56.40;;;;;;5038184;28;20037;-36
2021/10/08 02:06:30;;;;;;;7.30;5.22;;;8.40;56.40;;;;;;5038781;28;20318;-36
2021/10/08 02:08:56;;;;;;;8.80;5.35;;;8.40;56.30;;;;;;5039144;28;20026;-35
2021/10/08 02:11:22;;;;;;;12.75;5.65;;;8.30;56.30;;;;;;5038296;28;20076;-36
2021/10/08 02:13:48;;;;;;;13.40;5.80;;;8.30;56.30;;;;;;5038403;28;20057;-38
2021/10/08 02:16:13;;;;;;;12.13;5.28;;;8.30;56.40;;;;;;5038085;28;20079;-39
2021/10/08 02:18:39;;;;;;;9.48;4.70;;;8.30;56.40;;;;;;5038682;28;20038;-35
2021/10/08 02:21:05;;;;;;;10.63;5.25;;;8.30;56.40;;;;;;5037932;28;20037;-38
2021/10/08 02:23:31;;;;;;;8.55;5.10;;;8.30;56.50;;;;;;5038581;28;20033;-39
2021/10/08 02:25:57;;;;;;;9.02;5.35;;;8.30;56.50;;;;;;5037705;28;20109;-35
2021/10/08 02:28:23;;;;;;;12.00;5.25;;;8.30;56.50;;;;;;5037146;28;20120;-39
2021/10/08 02:30:48;;;;;;;15.88;5.50;;;8.20;56.40;;;;;;5037954;28;20053;-39
2021/10/08 02:33:14;;;;;;;9.25;5.65;;;8.20;56.30;;;;;;5038226;28;20034;-35
2021/10/08 02:35:40;;;;;;;10.27;5.53;;;8.30;56.30;;;;;;5037981;28;20116;-39
2021/10/08 02:38:06;;;;;;;8.68;5.47;;;8.20;56.40;;;;;;5037816;28;20148;-38
2021/10/08 02:40:32;;;;;;;10.00;6.13;;;8.30;56.30;;;;;;5036695;28;20045;-40
2021/10/08 02:42:58;;;;;;;17.08;7.15;;;8.20;56.20;;;;;;5037567;28;20029;-40
2021/10/08 02:45:23;;;;;;;11.82;5.50;;;8.20;56.20;;;;;;5037385;28;20317;-39
2021/10/08 02:47:49;;;;;;;9.07;5.47;;;8.20;56.20;;;;;;5037971;28;20170;-37
2021/10/08 02:50:16;;;;;;;11.38;6.05;;;8.20;56.20;;;;;;5037778;28;20047;-39
2021/10/08 02:52:41;;;;;;;11.95;6.95;;;8.20;56.10;;;;;;5037843;28;20034;-37
2021/10/08 02:55:08;;;;;;;11.60;5.65;;;8.20;56.10;;;;;;5037814;28;20431;-35
2021/10/08 02:57:39;;;;;;;11.02;6.07;;;8.20;56.10;;;;;;5037389;28;20060;-38
2021/10/08 03:00:10;;;;;;;11.13;5.30;;;8.20;56.10;;;;;;5037217;28;20036;-38
2021/10/08 03:02:36;;;;;;;10.70;5.57;;;8.10;56.10;;;;;;5037483;28;20034;-39
2021/10/08 03:05:02;;;;;;;14.30;5.70;;;8.10;56.10;;;;;;5037028;28;20080;-36
2021/10/08 03:07:28;;;;;;;13.15;5.88;;;8.10;56.10;;;;;;5037353;28;20025;-38
2021/10/08 03:09:54;;;;;;;9.60;5.80;;;8.10;56.10;;;;;;5037006;28;20352;-39
2021/10/08 03:12:19;;;;;;;12.02;6.10;;;8.10;56.10;;;;;;5037147;28;20076;-39
2021/10/08 03:14:46;;;;;;;13.82;5.85;;;8.10;56.20;;;;;;5037421;28;20044;-35
2021/10/08 03:17:11;;;;;;;11.02;6.45;;;8.00;56.80;;;;;;5037341;28;20306;-38
2021/10/08 03:19:37;;;;;;;13.07;6.47;;;8.00;56.30;;;;;;5037336;28;20025;-34
2021/10/08 03:22:03;;;;;;;10.07;5.35;;;8.00;56.30;;;;;;5036962;28;20087;-38
2021/10/08 03:24:29;;;;;;;12.70;5.93;;;8.00;56.40;;;;;;5037100;28;20433;-35
2021/10/08 03:26:54;;;;;;;12.65;6.10;;;8.00;56.40;;;;;;5036889;28;20053;-38
2021/10/08 03:29:20;;;;;;;13.98;6.35;;;7.90;56.40;;;;;;5037008;28;20025;-38
2021/10/08 03:31:46;;;;;;;12.40;6.03;;;8.00;56.50;;;;;;5037122;28;20025;-38
2021/10/08 03:34:12;;;;;;;9.90;6.15;;;7.90;56.50;;;;;;5037034;28;20334;-35
2021/10/08 03:39:12;;;;;;;10.50;6.10;;;7.90;56.50;;;;;;5036838;28;20329;-38
2021/10/08 03:41:40;;;;;;;11.23;5.82;;;7.90;56.50;;;;;;5036810;28;20044;-38
2021/10/08 03:44:06;;;;;;;14.23;5.75;;;7.90;56.50;;;;;;5036964;28;20033;-35
2021/10/08 03:46:37;;;;;;;10.05;6.15;;;7.90;56.60;;;;;;5036511;28;20032;-40
2021/10/08 03:51:32;;;;;;;12.68;6.55;;;7.90;56.60;;;;;;5036913;28;20033;-36
2021/10/08 03:53:58;;;;;;;9.90;5.63;;;7.90;56.70;;;;;;5036670;28;20118;-37
2021/10/08 03:56:25;;;;;;;15.68;6.03;;;7.80;56.70;;;;;;5035592;28;20152;-35
2021/10/08 03:58:51;;;;;;;11.50;5.65;;;7.80;56.70;;;;;;5036687;28;20333;-38
2021/10/08 04:01:17;;;;;;;15.77;6.32;;;7.80;56.80;;;;;;5036309;28;20033;-38
2021/10/08 04:03:43;;;;;;;27.08;7.80;;;7.80;56.80;;;;;;5036683;28;20040;-34
2021/10/08 04:06:08;;;;;;;12.30;6.43;;;7.80;56.80;;;;;;5035981;28;20025;-35
2021/10/08 04:08:34;;;;;;;12.48;5.80;;;7.80;56.80;;;;;;5036738;28;20053;-35
2021/10/08 04:11:00;;;;;;;13.98;5.85;;;7.80;56.80;;;;;;5036135;28;20029;-34
2021/10/08 04:13:25;;;;;;;11.68;6.30;;;7.80;56.70;;;;;;5036418;28;20041;-35
2021/10/08 04:15:51;;;;;;;11.02;6.50;;;7.80;56.70;;;;;;5035921;28;20027;-35
2021/10/08 04:18:17;;;;;;;14.98;6.88;;;7.80;56.70;;;;;;5036207;28;20041;-37
2021/10/08 04:20:42;;;;;;;43.45;12.43;;;7.80;56.70;;;;;;5036172;28;20080;-35
2021/10/08 04:23:08;;;;;;;12.80;6.28;;;7.80;56.70;;;;;;5035985;28;20410;-35
2021/10/08 04:25:34;;;;;;;16.95;6.72;;;7.80;56.50;;;;;;5035851;28;20026;-38
2021/10/08 04:28:00;;;;;;;16.30;6.30;;;7.80;56.40;;;;;;5035880;28;20033;-35
2021/10/08 04:30:26;;;;;;;13.25;6.78;;;7.80;56.30;;;;;;5037376;28;20026;-35
2021/10/08 04:32:52;;;;;;;12.23;5.90;;;7.80;56.30;;;;;;5035714;28;20029;-35
2021/10/08 04:35:17;;;;;;;15.25;5.82;;;7.80;56.20;;;;;;5037736;28;20025;-39
2021/10/08 04:37:43;;;;;;;14.35;6.80;;;7.70;56.10;;;;;;5044232;28;20034;-39
2021/10/08 04:40:09;;;;;;;14.45;6.78;;;7.70;56.10;;;;;;5035295;28;20108;-35
2021/10/08 04:42:35;;;;;;;12.43;6.93;;;7.70;56.00;;;;;;5035430;28;20410;-38
2021/10/08 04:45:01;;;;;;;21.73;6.88;;;7.70;56.00;;;;;;5035538;28;20035;-35
2021/10/08 04:47:27;;;;;;;12.85;6.13;;;7.70;56.00;;;;;;5035552;28;20216;-35
2021/10/08 04:49:52;;;;;;;32.47;8.85;;;7.70;56.00;;;;;;5035301;28;20021;-39
2021/10/08 04:52:18;;;;;;;14.50;6.53;;;7.70;56.00;;;;;;5035319;28;20033;-35
2021/10/08 04:54:44;;;;;;;19.02;7.25;;;7.70;55.80;;;;;;5035604;28;20040;-34
2021/10/08 04:57:10;;;;;;;15.18;8.13;;;7.70;55.80;;;;;;5035266;28;20141;-35
2021/10/08 04:59:36;;;;;;;15.68;6.70;;;7.70;55.60;;;;;;5035279;28;20030;-35
2021/10/08 05:02:02;;;;;;;15.82;6.35;;;7.70;55.50;;;;;;5035117;28;20041;-38
2021/10/08 05:04:28;;;;;;;20.85;8.23;;;7.70;55.50;;;;;;5035139;28;20040;-40
2021/10/08 05:06:53;;;;;;;34.85;9.80;;;7.70;55.70;;;;;;5035394;28;20022;-35
2021/10/08 05:09:19;;;;;;;30.88;9.02;;;7.70;55.80;;;;;;5040243;28;20444;-35
2021/10/08 05:11:45;;;;;;;85.47;11.57;;;7.70;56.00;;;;;;5041592;28;20060;-38
2021/10/08 05:14:10;;;;;;;25.13;8.20;;;7.70;55.90;;;;;;5041661;28;20237;-35
2021/10/08 05:16:37;;;;;;;24.05;7.47;;;7.70;55.60;;;;;;5041787;28;20030;-35
2021/10/08 05:19:04;;;;;;;18.55;8.02;;;7.70;55.60;;;;;;5041490;28;20430;-35
2021/10/08 05:21:29;;;;;;;12.88;6.82;;;7.70;55.60;;;;;;5041446;28;20188;-38
2021/10/08 05:23:55;;;;;;;26.55;9.90;;;7.70;55.70;;;;;;5042016;28;20041;-39
2021/10/08 05:26:21;;;;;;;32.33;13.60;;;7.80;55.70;;;;;;5041244;28;20026;-39
2021/10/08 05:28:46;;;;;;;25.67;10.75;;;7.80;55.60;;;;;;5041958;28;20032;-39
2021/10/08 05:31:12;;;;;;;22.35;10.32;;;7.80;55.70;;;;;;5041327;28;20037;-37
2021/10/08 05:33:38;;;;;;;24.65;10.70;;;7.80;55.80;;;;;;5040144;28;20040;-34
2021/10/08 05:36:04;;;;;;;21.40;9.90;;;7.80;55.80;;;;;;5041039;28;20026;-35
2021/10/08 05:38:29;;;;;;;26.33;11.82;;;7.90;55.70;;;;;;5042007;28;20037;-36
2021/10/08 05:40:55;;;;;;;20.27;9.27;;;7.90;55.70;;;;;;5041409;28;20095;-39
2021/10/08 05:43:21;;;;;;;20.58;8.68;;;7.90;55.60;;;;;;5041349;28;20418;-35
2021/10/08 05:45:47;;;;;;;20.75;8.35;;;8.00;55.60;;;;;;5041252;28;20037;-38
2021/10/08 05:48:14;;;;;;;20.77;8.73;;;8.10;55.40;;;;;;5041519;28;20026;-39
2021/10/08 05:50:39;;;;;;;26.05;8.35;;;8.20;55.20;;;;;;5041682;28;20122;-35
2021/10/08 05:53:11;;;;;;;16.25;7.78;;;8.20;55.10;;;;;;5041690;28;20033;-36
2021/10/08 05:55:38;;;;;;;22.77;7.38;;;8.30;55.00;;;;;;5041392;28;20055;-35
2021/10/08 05:58:06;;;;;;;20.13;7.05;;;8.30;54.90;;;;;;5041591;28;20481;-39
2021/10/08 06:00:33;;;;;;;14.80;7.65;;;8.40;54.70;;;;;;5041441;28;20059;-35
2021/10/08 06:03:00;;;;;;;20.52;9.35;;;8.40;54.50;;;;;;5041526;28;20096;-39
2021/10/08 06:05:26;;;;;;;25.90;9.05;;;8.50;54.30;;;;;;5041357;28;20033;-39
2021/10/08 06:07:52;;;;;;;24.13;7.47;;;8.60;54.30;;;;;;5041147;28;20025;-36
2021/10/08 06:10:18;;;;;;;15.98;7.05;;;8.60;54.20;;;;;;5041142;28;20025;-36
2021/10/08 06:12:43;;;;;;;17.08;6.10;;;8.70;54.10;;;;;;5041527;28;20140;-36
2021/10/08 06:15:09;;;;;;;19.77;8.23;;;8.80;54.00;;;;;;5041280;28;20366;-34
2021/10/08 06:17:35;;;;;;;18.20;7.18;;;8.90;53.90;;;;;;5041277;28;20120;-38
2021/10/08 06:20:01;;;;;;;17.00;7.30;;;8.90;53.80;;;;;;5038432;28;20195;-38
2021/10/08 06:22:26;;;;;;;21.90;7.80;;;8.90;53.70;;;;;;5037947;28;20406;-41
2021/10/08 06:24:52;;;;;;;18.13;7.15;;;9.00;53.50;;;;;;5038031;28;20424;-34
2021/10/08 06:27:18;;;;;;;19.50;7.80;;;9.00;53.60;;;;;;5037635;28;20421;-34
2021/10/08 06:29:43;;;;;;;18.75;8.50;;;9.00;53.40;;;;;;5037913;28;20026;-40
2021/10/08 06:32:09;;;;;;;50.25;24.85;;;9.00;53.30;;;;;;5037746;28;20128;-38
2021/10/08 06:34:34;;;;;;;31.27;9.25;;;9.00;53.40;;;;;;5037719;28;20022;-39
2021/10/08 06:37:00;;;;;;;20.67;8.98;;;9.10;53.60;;;;;;5037543;28;21095;-39
2021/10/08 06:39:26;;;;;;;23.23;7.55;;;9.10;53.60;;;;;;5038045;28;20337;-38
2021/10/08 06:41:51;;;;;;;15.00;7.53;;;9.10;53.60;;;;;;5037724;28;20464;-36
2021/10/08 06:44:18;;;;;;;14.38;7.35;;;9.10;53.50;;;;;;5037444;28;20030;-40
2021/10/08 06:46:43;;;;;;;21.50;8.48;;;9.10;53.40;;;;;;5037543;28;20025;-38
2021/10/08 06:49:10;;;;;;;19.63;8.70;;;9.10;53.40;;;;;;5037549;28;20372;-38
2021/10/08 06:51:37;;;;;;;17.10;7.72;;;9.10;53.40;;;;;;5037702;28;20399;-39
2021/10/08 06:54:03;;;;;;;16.83;7.22;;;9.10;53.50;;;;;;5037404;28;20325;-35
2021/10/08 06:56:30;;;;;;;19.77;7.45;;;9.20;53.60;;;;;;5037367;28;20366;-36
2021/10/08 06:58:56;;;;;;;19.95;8.95;;;9.30;53.60;;;;;;5037768;28;20041;-35
2021/10/08 07:01:22;;;;;;;13.98;6.50;;;9.40;53.80;;;;;;5036931;28;20101;-40
2021/10/08 07:03:48;;;;;;;18.05;7.43;;;9.50;53.60;;;;;;5037636;28;20385;-35
2021/10/08 07:06:14;;;;;;;16.00;6.45;;;9.60;53.50;;;;;;5036829;28;20029;-34
2021/10/08 07:08:40;;;;;;;20.85;7.45;;;9.70;53.30;;;;;;5037504;28;20034;-36
2021/10/08 07:11:06;;;;;;;15.25;6.35;;;9.80;53.10;;;;;;5036575;28;20022;-36
2021/10/08 07:13:31;;;;;;;19.63;8.45;;;9.90;53.00;;;;;;5037456;28;20033;-36
2021/10/08 07:15:58;;;;;;;24.42;9.27;;;10.00;52.60;;;;;;5036912;28;20171;-38
2021/10/08 07:18:33;;;;;;;15.57;6.05;;;10.10;52.30;;;;;;5037348;28;20057;-40
2021/10/08 07:20:59;;;;;;;12.57;6.63;;;10.20;52.30;;;;;;5036739;28;20029;-34
2021/10/08 07:23:25;;;;;;;19.98;7.15;;;10.30;52.20;;;;;;5037263;28;20048;-34
2021/10/08 07:25:51;;;;;;;16.10;7.32;;;10.40;51.90;;;;;;5036963;28;20029;-36
2021/10/08 07:28:18;;;;;;;17.52;6.80;;;10.40;52.30;;;;;;5036869;28;20038;-34
2021/10/08 07:30:44;;;;;;;16.05;6.63;;;10.50;51.40;;;;;;5036830;28;20348;-36
2021/10/08 07:33:10;;;;;;;20.33;8.23;;;10.50;51.20;;;;;;5036947;28;20061;-39
2021/10/08 07:35:36;;;;;;;19.90;9.27;;;10.50;51.00;;;;;;5036721;28;20406;-40
2021/10/08 07:38:02;;;;;;;14.25;6.32;;;10.50;51.00;;;;;;5036684;28;20044;-39
2021/10/08 07:40:28;;;;;;;48.20;21.10;;;10.60;51.80;;;;;;5036262;28;20068;-37
2021/10/08 07:42:53;;;;;;;26.52;10.98;;;10.70;51.20;;;;;;5036190;28;20041;-34
2021/10/08 07:45:19;;;;;;;19.13;10.70;;;10.90;50.80;;;;;;5036538;28;20029;-35
2021/10/08 07:47:45;;;;;;;41.13;18.20;;;11.00;50.20;;;;;;5036540;28;20241;-38
2021/10/08 07:50:11;;;;;;;24.70;13.43;;;11.10;49.80;;;;;;5036319;28;20026;-35
2021/10/08 07:52:37;;;;;;;23.23;9.90;;;11.30;49.30;;;;;;5036259;28;20108;-39
2021/10/08 07:55:05;;;;;;;19.83;8.32;;;11.40;48.80;;;;;;5038770;28;20033;-39
2021/10/08 07:57:30;;;;;;;22.23;8.93;;;11.40;48.60;;;;;;5044855;28;20049;-39
2021/10/08 07:59:56;;;;;;;13.48;6.65;;;11.50;48.70;;;;;;5034965;28;20052;-35
2021/10/08 08:02:23;;;;;;;22.27;7.65;;;11.60;48.80;;;;;;5036230;28;20317;-38
2021/10/08 08:04:49;;;;;;;15.35;7.15;;;11.70;48.90;;;;;;5036278;28;20033;-39
2021/10/08 08:07:14;;;;;;;19.25;8.55;;;11.70;48.90;;;;;;5036144;28;20512;-40
2021/10/08 08:09:40;;;;;;;22.42;6.78;;;11.70;48.90;;;;;;5035966;28;20060;-35
2021/10/08 08:12:06;;;;;;;29.75;14.85;;;11.70;48.80;;;;;;5035973;28;20057;-40
2021/10/08 08:14:31;;;;;;;18.70;10.55;;;11.70;48.50;;;;;;5035863;28;20104;-40
2021/10/08 08:16:57;;;;;;;22.70;10.52;;;11.70;48.40;;;;;;5035811;28;20060;-33
2021/10/08 08:19:23;;;;;;;15.57;7.75;;;11.70;48.40;;;;;;5035258;28;20264;-36
2021/10/08 08:21:49;;;;;;;14.20;7.28;;;11.70;48.50;;;;;;5035408;28;20031;-39
2021/10/08 08:24:14;;;;;;;23.35;8.77;;;11.70;48.70;;;;;;5035624;28;20025;-39
2021/10/08 08:26:40;;;;;;;13.23;5.93;;;11.70;48.70;;;;;;5035876;28;20075;-39
2021/10/08 08:29:06;;;;;;;21.20;7.85;;;11.70;49.30;;;;;;5035714;28;20029;-35
2021/10/08 08:31:33;;;;;;;18.80;6.25;;;11.70;49.80;;;;;;5035532;28;20083;-35
2021/10/08 08:33:59;;;;;;;22.77;10.75;;;11.70;49.90;;;;;;5036116;28;20041;-38
2021/10/08 08:36:25;;;;;;;16.92;9.55;;;11.70;49.90;;;;;;5035486;28;20025;-35
2021/10/08 08:38:50;;;;;;;14.60;6.20;;;11.70;50.30;;;;;;5035842;28;20560;-36
2021/10/08 08:41:16;;;;;;;13.20;5.60;;;11.70;50.30;;;;;;5035486;28;20076;-39
2021/10/08 08:43:42;;;;;;;13.70;5.47;;;11.80;50.20;;;;;;5035530;28;20037;-40
2021/10/08 08:46:07;;;;;;;11.02;5.03;;;11.90;50.00;;;;;;5035009;28;20025;-36
2021/10/08 08:48:34;;;;;;;12.30;4.78;;;11.90;49.60;;;;;;5034821;28;20262;-35
2021/10/08 08:50:59;;;;;;;13.32;4.65;;;12.00;49.40;;;;;;5035152;28;20029;-40
2021/10/08 08:53:25;;;;;;;12.15;5.32;;;12.10;49.30;;;;;;5035465;28;20029;-36
2021/10/08 08:55:51;;;;;;;14.15;5.18;;;12.10;49.00;;;;;;5033768;28;20132;-36
2021/10/08 08:58:18;;;;;;;16.27;5.72;;;12.20;48.60;;;;;;5033938;28;20387;-40
2021/10/08 09:00:46;;;;;;;15.52;4.93;;;12.30;48.50;;;;;;5035337;28;20112;-36
2021/10/08 09:03:14;;;;;;;22.30;5.38;;;12.30;48.50;;;;;;5034958;28;20198;-36
2021/10/08 09:05:45;;;;;;;19.88;5.07;;;12.30;48.30;;;;;;5035097;28;20081;-39
2021/10/08 09:08:13;;;;;;;12.00;4.43;;;12.30;48.40;;;;;;5035178;28;20033;-41
2021/10/08 09:10:42;;;;;;;10.40;4.38;;;12.40;48.40;;;;;;5035134;28;20036;-38
2021/10/08 09:13:08;;;;;;;11.52;3.88;;;12.40;48.20;;;;;;5035376;28;20472;-39
2021/10/08 09:15:47;;;;;;;10.10;3.67;;;12.40;48.10;;;;;;5035004;28;20038;-39
2021/10/08 09:18:15;;;;;;;14.05;4.43;;;12.50;47.70;;;;;;5035297;28;20056;-38
2021/10/08 09:20:59;;;;;;;11.13;3.80;;;12.60;47.70;;;;;;5034767;28;20084;-39
2021/10/08 09:23:33;;;;;;;16.17;3.97;;;12.70;47.50;;;;;;5034872;28;20037;-35
2021/10/08 09:25:58;;;;;;;17.30;5.25;;;12.70;47.40;;;;;;5034453;28;20308;-35
2021/10/08 09:28:24;;;;;;;18.08;4.35;;;12.80;47.20;;;;;;5035023;28;20084;-34
2021/10/08 09:30:50;;;;;;;10.55;4.20;;;12.90;47.30;;;;;;5035085;28;20037;-35
2021/10/08 09:33:22;;;;;;;13.95;4.50;;;13.00;46.90;;;;;;5035036;28;20040;-36
2021/10/08 09:35:51;;;;;;;26.27;3.47;;;13.10;46.70;;;;;;5035037;28;20329;-35
2021/10/08 09:38:17;;;;;;;16.40;5.32;;;13.20;46.30;;;;;;5035130;28;20069;-35
2021/10/08 09:40:47;;;;;;;11.57;4.03;;;13.30;45.70;;;;;;5034865;28;20362;-39
2021/10/08 09:43:25;;;;;;;13.55;4.18;;;13.30;45.40;;;;;;5035044;28;20041;-35
2021/10/08 09:45:54;;;;;;;12.13;4.60;;;13.40;45.50;;;;;;5034625;28;20029;-35
2021/10/08 09:48:30;;;;;;;18.85;4.82;;;13.50;45.70;;;;;;5034941;28;20073;-39
2021/10/08 09:51:15;;;;;;;13.80;3.60;;;13.60;45.60;;;;;;5042402;28;20112;-39
2021/10/08 09:53:46;;;;;;;12.68;3.63;;;13.70;45.50;;;;;;5055191;28;20025;-36
2021/10/08 09:56:42;;;;;;;16.63;3.90;;;13.80;45.10;;;;;;5056510;28;20448;-36
2021/10/08 09:59:10;;;;;;;15.90;3.28;;;13.90;44.80;;;;;;5057580;28;20053;-36
2021/10/08 10:01:37;;;;;;;15.10;3.50;;;14.00;44.30;;;;;;5058193;28;20021;-35
2021/10/08 10:04:05;;;;;;;13.65;4.18;;;14.10;43.80;;;;;;5058314;28;20419;-35
2021/10/08 10:06:31;;;;;;;17.70;3.28;;;14.10;43.40;;;;;;5058107;28;20060;-35
2021/10/08 10:08:57;;;;;;;18.80;3.47;;;14.20;43.00;;;;;;5058687;28;20056;-35
2021/10/08 10:11:25;;;;;;;14.48;3.55;;;14.20;42.70;;;;;;5058029;28;20029;-36
2021/10/08 10:13:57;;;;;;;19.65;4.28;;;14.20;42.30;;;;;;5058025;28;20455;-36
2021/10/08 10:16:24;;;;;;;13.23;3.08;;;14.30;42.50;;;;;;5057831;28;20025;-36
2021/10/08 10:18:52;;;;;;;10.65;3.65;;;14.20;42.50;;;;;;5058478;28;20096;-39
2021/10/08 10:21:22;;;;;;;8.73;3.70;;;14.20;42.60;;;;;;5057985;28;20053;-35
2021/10/08 10:23:56;;;;;;;14.48;4.10;;;14.20;42.90;;;;;;5057914;28;20044;-40
2021/10/08 10:26:23;;;;;;;11.25;3.88;;;14.30;43.00;;;;;;5049884;28;20304;-40
2021/10/08 10:28:50;;;;;;;16.50;3.92;;;14.30;43.20;;;;;;5045499;28;20423;-39
2021/10/08 10:31:17;;;;;;;15.80;3.80;;;14.30;43.50;;;;;;5037729;28;20030;-39
2021/10/08 10:33:43;;;;;;;17.77;4.03;;;14.40;42.90;;;;;;5037669;28;20441;-39
2021/10/08 10:36:28;;;;;;;9.65;4.63;;;14.60;43.10;;;;;;5037294;28;20077;-39
2021/10/08 10:39:15;;;;;;;17.55;4.65;;;14.70;42.90;;;;;;5038036;28;20428;-40
2021/10/08 10:41:43;;;;;;;8.05;3.85;;;14.80;43.00;;;;;;5037419;28;20037;-39
2021/10/08 10:44:20;;;;;;;9.60;3.70;;;14.90;43.00;;;;;;5037672;28;20033;-39
2021/10/08 10:52:04;;;;;;;8.25;3.42;;;15.00;42.30;;;;;;5037246;28;20163;-38
2021/10/08 10:54:41;;;;;;;14.77;3.50;;;15.10;41.70;;;;;;5037361;28;20037;-36
2021/10/08 10:57:12;;;;;;;17.48;4.30;;;15.10;41.70;;;;;;5036958;28;20058;-40
2021/10/08 10:59:42;;;;;;;12.27;4.68;;;15.20;41.00;;;;;;5037066;28;20021;-36
2021/10/08 11:02:16;;;;;;;15.95;4.45;;;15.20;40.90;;;;;;5036686;28;20048;-36
2021/10/08 11:04:53;;;;;;;10.55;4.07;;;15.20;40.60;;;;;;5037193;28;20033;-36
2021/10/08 11:07:24;;;;;;;14.63;4.03;;;15.30;40.40;;;;;;5036463;28;20037;-35
2021/10/08 11:10:06;;;;;;;17.50;4.78;;;15.30;40.30;;;;;;5036527;28;20445;-35
2021/10/08 11:12:37;;;;;;;21.63;5.03;;;15.30;39.80;;;;;;5037114;28;20041;-35
2021/10/08 11:15:18;;;;;;;21.58;6.40;;;15.20;40.00;;;;;;5036821;28;20429;-35
2021/10/08 11:17:53;;;;;;;13.10;5.28;;;15.30;39.70;;;;;;5036856;28;20045;-34
2021/10/08 11:20:31;;;;;;;24.42;7.63;;;15.30;40.50;;;;;;5037154;28;20476;-39
2021/10/08 11:23:01;;;;;;;17.75;5.22;;;15.40;40.70;;;;;;5036355;28;20034;-39
2021/10/08 11:25:28;;;;;;;20.10;5.45;;;15.40;40.80;;;;;;5036656;28;20438;-39
2021/10/08 11:27:54;;;;;;;15.32;3.55;;;15.50;39.80;;;;;;5036782;28;20040;-39
2021/10/08 11:30:23;;;;;;;14.85;3.58;;;15.70;39.50;;;;;;5036496;28;20036;-35
2021/10/08 11:32:54;;;;;;;11.38;3.50;;;15.70;39.40;;;;;;5036799;28;20033;-35
2021/10/08 11:35:32;;;;;;;12.68;4.40;;;15.80;39.60;;;;;;5035427;28;20318;-35
2021/10/08 11:37:59;;;;;;;17.70;5.75;;;15.90;39.00;;;;;;5036336;28;20048;-39
2021/10/08 11:40:38;;;;;;;14.65;4.68;;;15.80;38.60;;;;;;5037036;28;20034;-35
2021/10/08 11:43:07;;;;;;;14.52;5.05;;;15.80;38.30;;;;;;5036473;28;20044;-35
2021/10/08 11:45:36;;;;;;;15.40;5.38;;;15.80;38.60;;;;;;5035081;28;20029;-39
2021/10/08 11:48:13;;;;;;;15.93;4.93;;;15.80;38.40;;;;;;5036009;28;20033;-35
2021/10/08 11:53:06;;;;;;;15.70;4.38;;;15.70;38.40;;;;;;5036185;28;20418;-35
2021/10/08 11:55:38;;;;;;;20.88;5.65;;;15.70;38.50;;;;;;5035900;28;20137;-35
2021/10/08 11:58:07;;;;;;;15.57;5.55;;;15.60;38.70;;;;;;5036099;28;20037;-40
2021/10/08 12:00:39;;;;;;;10.38;4.65;;;15.60;39.10;;;;;;5036189;28;20021;-39
2021/10/08 12:03:17;;;;;;;12.77;4.88;;;15.50;39.40;;;;;;5035546;28;20124;-40
2021/10/08 12:05:51;;;;;;;13.07;4.90;;;15.50;39.80;;;;;;5035829;28;20152;-35
2021/10/08 12:08:22;;;;;;;12.10;5.30;;;15.50;39.70;;;;;;5036043;28;20034;-37
2021/10/08 12:10:51;;;;;;;25.20;6.88;;;15.50;39.30;;;;;;5035735;28;20075;-35
2021/10/08 12:13:17;;;;;;;13.18;6.50;;;15.40;39.20;;;;;;5035950;28;20450;-34
2021/10/08 12:15:43;;;;;;;29.35;7.20;;;15.40;39.70;;;;;;5035504;28;20060;-35
2021/10/08 12:18:15;;;;;;;13.23;5.25;;;15.40;40.00;;;;;;5035074;28;20068;-35
2021/10/08 12:20:41;;;;;;;15.93;5.03;;;15.40;39.70;;;;;;5035828;28;20402;-35
2021/10/08 12:23:23;;;;;;;20.65;6.13;;;15.40;40.00;;;;;;5035585;28;20068;-38
2021/10/08 12:25:54;;;;;;;10.52;4.93;;;15.40;40.30;;;;;;5035371;28;20063;-39
2021/10/08 12:28:25;;;;;;;11.75;6.45;;;15.30;40.20;;;;;;5035701;28;20037;-38
2021/10/08 12:30:55;;;;;;;16.23;5.60;;;15.30;40.20;;;;;;5035589;28;20026;-39
2021/10/08 12:33:25;;;;;;;18.65;7.95;;;15.30;40.30;;;;;;5035388;28;20080;-39
2021/10/08 12:36:12;;;;;;;17.38;7.32;;;15.30;40.30;;;;;;5035278;28;20049;-40
2021/10/08 12:38:57;;;;;;;17.35;7.55;;;15.30;40.30;;;;;;5035967;28;20475;-38
2021/10/08 12:41:32;;;;;;;17.95;7.18;;;15.30;40.30;;;;;;5035029;28;20064;-39
2021/10/08 12:44:13;;;;;;;13.25;7.57;;;15.20;40.00;;;;;;5035832;28;20377;-39
2021/10/08 12:46:41;;;;;;;16.88;7.55;;;15.20;39.20;;;;;;5035494;28;20021;-35
2021/10/08 12:49:08;;;;;;;15.13;6.55;;;15.10;39.00;;;;;;5035551;28;20061;-35
2021/10/08 12:51:52;;;;;;;14.52;6.65;;;15.10;39.20;;;;;;5035544;28;20075;-35
2021/10/08 12:54:23;;;;;;;15.18;6.97;;;15.10;39.50;;;;;;5035475;28;20366;-35
2021/10/08 12:57:14;;;;;;;14.48;5.90;;;15.00;39.10;;;;;;5035189;28;20057;-35
2021/10/08 12:59:51;;;;;;;25.40;7.03;;;15.00;39.10;;;;;;5034115;28;20033;-40